Terminal Aerodrome Forecast
Issued by NWS Charleston, WV

Current Version | Previous Version | Text Only | Print | Product List | Glossary Off
Versions: 1 2 3 4 5 6 7 8 9 10 11 12 13 14 15 16 17 18 19 20 21 22 23 24 25 26

000
FTUS41 KRLX 210903 AAA
TAFCRW
TAF AMD
KCRW 210903Z 2109/2206 23006KT P6SM SHRA SCT008 OVC015
      TEMPO 2111/2114 BKN008
     FM211400 26006KT P6SM -SHRA SCT008 OVC015
     FM211700 30008KT P6SM BKN025
     FM212000 28009KT P6SM BKN050
     FM220000 29005KT P6SM SCT100 SCT250=

USA.gov is the U.S. government's official web portal to all federal, state and local government web resources and services.